Aviation Digital Data Service (ADDS)

Output produced by METARs form (0454 UTC 24 January 2019)
found at http://www.aviationweather.gov/metar/data/
 
METAR text: LEGA 231800Z 05007KT 9999 BKN023 BKN028 09/05 Q1012
Conditions at: LEGA (ARMILLA (CIV/MIL, ES) observed 1800 UTC 23 January 2019
Temperature: 9.0°C (48°F)
Dewpoint: 5.0°C (41°F) [RH = 76%]
Pressure (altimeter): 29.88 inches Hg (1012.0 mb)
Winds: from the NE (50 degrees) at 8 MPH (7 knots; 3.6 m/s)
Visibility: 6 or more miles (10+ km)
Ceiling: 2300 feet AGL
Clouds: broken clouds at 2300 feet AGL
broken clouds at 2800 feet AGL
Weather: no significant weather observed at this time

METAR text: LEGA 231700Z 04010KT 9999 BKN020 OVC024 09/05 Q1012
Conditions at: LEGA (ARMILLA (CIV/MIL, ES) observed 1700 UTC 23 January 2019
Temperature: 9.0°C (48°F)
Dewpoint: 5.0°C (41°F) [RH = 76%]
Pressure (altimeter): 29.88 inches Hg (1012.0 mb)
Winds: from the NE (40 degrees) at 12 MPH (10 knots; 5.1 m/s)
Visibility: 6 or more miles (10+ km)
Ceiling: 2000 feet AGL
Clouds: broken clouds at 2000 feet AGL
overcast cloud deck at 2400 feet AGL
Weather: no significant weather observed at this time

METAR text: LEGA 231600Z 06012KT 9000 FEW018 BKN022 BKN027 08/05 Q1012
Conditions at: LEGA (ARMILLA (CIV/MIL, ES) observed 1600 UTC 23 January 2019
Temperature: 8.0°C (46°F)
Dewpoint: 5.0°C (41°F) [RH = 81%]
Pressure (altimeter): 29.88 inches Hg (1012.0 mb)
Winds: from the ENE (60 degrees) at 14 MPH (12 knots; 6.2 m/s)
Visibility: 6 miles ( 9 km)
Ceiling: 2200 feet AGL
Clouds: few clouds at 1800 feet AGL
broken clouds at 2200 feet AGL
broken clouds at 2700 feet AGL
Weather: no significant weather observed at this time

METAR text: LEGA 231500Z 06007KT 8000 BKN017 OVC021 07/05 Q1013
Conditions at: LEGA (ARMILLA (CIV/MIL, ES) observed 1500 UTC 23 January 2019
Temperature: 7.0°C (45°F)
Dewpoint: 5.0°C (41°F) [RH = 87%]
Pressure (altimeter): 29.91 inches Hg (1013.0 mb)
Winds: from the ENE (60 degrees) at 8 MPH (7 knots; 3.6 m/s)
Visibility: 5 miles ( 8 km)
Ceiling: 1700 feet AGL
Clouds: broken clouds at 1700 feet AGL
overcast cloud deck at 2100 feet AGL
Weather: no significant weather observed at this time

METAR text: LEGA 231400Z 04010KT 8000 -DZ BKN015 BKN019 07/05 Q1013
Conditions at: LEGA (ARMILLA (CIV/MIL, ES) observed 1400 UTC 23 January 2019
Temperature: 7.0°C (45°F)
Dewpoint: 5.0°C (41°F) [RH = 87%]
Pressure (altimeter): 29.91 inches Hg (1013.0 mb)
Winds: from the NE (40 degrees) at 12 MPH (10 knots; 5.1 m/s)
Visibility: 5 miles ( 8 km)
Ceiling: 1500 feet AGL
Clouds: broken clouds at 1500 feet AGL
broken clouds at 1900 feet AGL
Weather: -DZ  (light drizzle)

METAR text: LEGA 231300Z 06007KT 5000 RADZ SCT009 BKN013 BKN019 06/05 Q1013
Conditions at: LEGA (ARMILLA (CIV/MIL, ES) observed 1300 UTC 23 January 2019
Temperature: 6.0°C (43°F)
Dewpoint: 5.0°C (41°F) [RH = 93%]
Pressure (altimeter): 29.91 inches Hg (1013.0 mb)
Winds: from the ENE (60 degrees) at 8 MPH (7 knots; 3.6 m/s)
Visibility: 3 miles ( 5 km)
Ceiling: 1300 feet AGL
Clouds: scattered clouds at 900 feet AGL
broken clouds at 1300 feet AGL
broken clouds at 1900 feet AGL
Weather: RA DZ  (moderate rain, moderate drizzle)

METAR text: LEGA 231200Z 04009KT 5000 -RADZ BKN007 OVC010 06/05 Q1014
Conditions at: LEGA (ARMILLA (CIV/MIL, ES) observed 1200 UTC 23 January 2019
Temperature: 6.0°C (43°F)
Dewpoint: 5.0°C (41°F) [RH = 93%]
Pressure (altimeter): 29.94 inches Hg (1014.0 mb)
Winds: from the NE (40 degrees) at 10 MPH (9 knots; 4.6 m/s)
Visibility: 3 miles ( 5 km)
Ceiling: 700 feet AGL
Clouds: broken clouds at 700 feet AGL
overcast cloud deck at 1000 feet AGL
Weather: -RA -DZ  (light rain, light drizzle)

METAR text: LEGA 231100Z 04003KT 9999 -DZ OVC013 06/04 Q1015
Conditions at: LEGA (ARMILLA (CIV/MIL, ES) observed 1100 UTC 23 January 2019
Temperature: 6.0°C (43°F)
Dewpoint: 4.0°C (39°F) [RH = 87%]
Pressure (altimeter): 29.97 inches Hg (1015.0 mb)
Winds: from the NE (40 degrees) at 3 MPH (3 knots; 1.5 m/s)
Visibility: 6 or more miles (10+ km)
Ceiling: 1300 feet AGL
Clouds: overcast cloud deck at 1300 feet AGL
Weather: -DZ  (light drizzle)

METAR text: LEGA 231000Z 07005KT 9999 OVC015 06/04 Q1015
Conditions at: LEGA (ARMILLA (CIV/MIL, ES) observed 1000 UTC 23 January 2019
Temperature: 6.0°C (43°F)
Dewpoint: 4.0°C (39°F) [RH = 87%]
Pressure (altimeter): 29.97 inches Hg (1015.0 mb)
Winds: from the ENE (70 degrees) at 6 MPH (5 knots; 2.6 m/s)
Visibility: 6 or more miles (10+ km)
Ceiling: 1500 feet AGL
Clouds: overcast cloud deck at 1500 feet AGL
Weather: no significant weather observed at this time

METAR text: LEGA 230900Z 36007KT 5000 -RADZ OVC016 05/04 Q1015
Conditions at: LEGA (ARMILLA (CIV/MIL, ES) observed 0900 UTC 23 January 2019
Temperature: 5.0°C (41°F)
Dewpoint: 4.0°C (39°F) [RH = 93%]
Pressure (altimeter): 29.97 inches Hg (1015.0 mb)
Winds: from the N (360 degrees) at 8 MPH (7 knots; 3.6 m/s)
Visibility: 3 miles ( 5 km)
Ceiling: 1600 feet AGL
Clouds: overcast cloud deck at 1600 feet AGL
Weather: -RA -DZ  (light rain, light drizzle)

METAR text: LEGA 230800Z 36011KT 9999 OVC016 06/03 Q1015
Conditions at: LEGA (ARMILLA (CIV/MIL, ES) observed 0800 UTC 23 January 2019
Temperature: 6.0°C (43°F)
Dewpoint: 3.0°C (37°F) [RH = 81%]
Pressure (altimeter): 29.97 inches Hg (1015.0 mb)
Winds: from the N (360 degrees) at 13 MPH (11 knots; 5.7 m/s)
Visibility: 6 or more miles (10+ km)
Ceiling: 1600 feet AGL
Clouds: overcast cloud deck at 1600 feet AGL
Weather: no significant weather observed at this time

METAR text: LEGA 230700Z 01009KT 9999 OVC020 06/03 Q1015
Conditions at: LEGA (ARMILLA (CIV/MIL, ES) observed 0700 UTC 23 January 2019
Temperature: 6.0°C (43°F)
Dewpoint: 3.0°C (37°F) [RH = 81%]
Pressure (altimeter): 29.97 inches Hg (1015.0 mb)
Winds: from the N (10 degrees) at 10 MPH (9 knots; 4.6 m/s)
Visibility: 6 or more miles (10+ km)
Ceiling: 2000 feet AGL
Clouds: overcast cloud deck at 2000 feet AGL
Weather: no significant weather observed at this time

METAR text: LEGA 230600Z 34007KT 9999 SCT020 BKN025 06/04 Q1015
Conditions at: LEGA (ARMILLA (CIV/MIL, ES) observed 0600 UTC 23 January 2019
Temperature: 6.0°C (43°F)
Dewpoint: 4.0°C (39°F) [RH = 87%]
Pressure (altimeter): 29.97 inches Hg (1015.0 mb)
Winds: from the NNW (340 degrees) at 8 MPH (7 knots; 3.6 m/s)
Visibility: 6 or more miles (10+ km)
Ceiling: 2500 feet AGL
Clouds: scattered clouds at 2000 feet AGL
broken clouds at 2500 feet AGL
Weather: no significant weather observed at this time

METAR text: LEGA 221800Z 36006KT 9999 BKN032 BKN039 06/01 Q1017
Conditions at: LEGA (ARMILLA (CIV/MIL, ES) observed 1800 UTC 22 January 2019
Temperature: 6.0°C (43°F)
Dewpoint: 1.0°C (34°F) [RH = 70%]
Pressure (altimeter): 30.03 inches Hg (1017.0 mb)
Winds: from the N (360 degrees) at 7 MPH (6 knots; 3.1 m/s)
Visibility: 6 or more miles (10+ km)
Ceiling: 3200 feet AGL
Clouds: broken clouds at 3200 feet AGL
broken clouds at 3900 feet AGL
Weather: no significant weather observed at this time

METAR text: LEGA 221700Z 33014KT 9999 BKN045 07/M00 Q1017
Conditions at: LEGA (ARMILLA (CIV/MIL, ES) observed 1700 UTC 22 January 2019
Temperature: 7.0°C (45°F)
Dewpoint: 0.0°C (32°F) [RH = 61%]
Pressure (altimeter): 30.03 inches Hg (1017.0 mb)
Winds: from the NNW (330 degrees) at 16 MPH (14 knots; 7.2 m/s)
Visibility: 6 or more miles (10+ km)
Ceiling: 4500 feet AGL
Clouds: broken clouds at 4500 feet AGL
Weather: no significant weather observed at this time